Weather at Peter O Knight Airport

Public forecast

Using degrees Fahrenheit for public forecast. Weather courtesy of forecast.io.

Current aviation weather report (METAR) for Peter O Knight Airport

Retrieved 2020/09/28 04:35 UTC (13 minutes ago):

KTPF 280435Z AUTO 09006KT 10SM OVC100 24/23 A2992 RMK AO2

Closest aviation forecast (TAF) to Peter O Knight Airport

Closest forecast is Mac Dill Air Force Base, 5.5 nm (10.2 km) SW. Retrieved 2020-09-28 02:45 UTC (2 hours ago):

TAF KMCF 280200Z 2802/2908 VRB06KT 9999 VCTS SCT050CB QNH2994INS BECMG 2803/2804 VRB06KT 9999 NSW SCT050 QNH2994INS BECMG 2818/2819 VRB06KT 9999 VCTS BKN030CB QNH2991INS BECMG 2822/2823 VRB06KT 9999 NSW FEW030 QNH2989INS TX31/2818Z TN24/2809Z